LTBQ

Details ICAO LTBQ (KCO)
Name Cengiz Topel
Region Turkey
Timezone Europe/Istanbul (UTC+3.0)
Plans Departing 110
Arriving 113
Stats Elevation 182 ft / 55 m (AMSL)
Location 40.735100° 30.083200°
Runways 1
Magnetic Variation 5.852° E
Sunrise 2021-03-08 04:24:17 UTC / 2021-03-08 07:24:17 Local
Sunset 2021-03-08 15:59:31 UTC / 2021-03-08 18:59:31 Local
Advertisement - Login to hide

Runways

ID Width Length Bearing (true/mag) Surface Threshold Overrun Markings Lighting
09 98 ft / 30 m 9,786 ft / 2,983 m 96.32° / 90.47° ASPHALT 0 ft / 0 m 328 ft / 100 m PREC-APP EDGE THRESHOLD
27 98 ft / 30 m 9,786 ft / 2,983 m 276.34° / 270.49° ASPHALT 0 ft / 0 m 328 ft / 100 m PREC-APP EDGE THRESHOLD CALVERT

Approach Navaids

Runway Type Ident Frequency Range Bearing (true/mag) Slope Elevation
27 GS ICNG 108.35 MHz 10 nm / 19 km 276.33° / 270.48° 3.50° 182 ft / 55 m (AMSL)
27 LOC-ILS ICNG 108.35 MHz 18 nm / 33 km 276.33° / 270.48° - 182 ft / 55 m (AMSL)

Map

Weather


0- 5 10 15 20 25 30 35+ Temperature / °C

Clouds and Precipitation
Forecast for 2021-03-08 12:00 UTC. Updated 3 hours ago

Ground ~20,000 ft ~40,000 ft Winds

METAR

LTBQ 081150Z VRB04KT 9999 FEW040 11/00 Q1017 NOSIG RMK RWY09 21004KT 150V310

TAF

Not found

Frequencies

Tower 122.10 MHz Topel Tower
Tower 119.05 MHz Topel Tower
Approach 120.30 MHz Topel Approach
Approach 122.10 MHz Topel Approach
Warning: Do not use this data for real-world aviation or navigation. No guarantee of current accuracy is given.